Connexion S'enregistrer

Connexion à votre compte

Identifiant
Mot de passe
Maintenir la connexion active sur ce site

Créer un compte

Pour valider ce formulaire, vous devez remplir tous les champs.
Nom
Identifiant
Mot de passe
Répétez le mot de passe
Adresse e-mail
Répétez l'adresse e-mail

Nous contacter

 Téléphone : +33 (0)4 79 54 41 81

Coordonnées détaillées et accès : cliquez ici

 
LFLB °C
    Ferienhaus Ostsee
[source: ADDS]
METAR
LFLB 202200Z AUTO VRB03KT 3900 -SNRA BR FEW009 BKN034 BKN040 04/03 Q1008 TEMPO SCT008 BKN014 =
TAF
TAF LFLB 201700Z 2018/2118 19012KT 9999 FEW010 BKN020 BKN030 TEMPO 2018/2103 3000 -RA SCT008 BKN014 BECMG 2023/2101 36010KT PROB40 TEMPO 2101/2104 36015G30KT TEMPO 2103/2118 4000 -RA BECMG 2106/2108 16006KT =
SR / SS: 07:09 / 16:25 UTC (Lever/Coucher du soleil le 2018-01-20)
JSN Boot template designed by JoomlaShine.com